createdAt,value
2022-11-30T00:01:15.874Z,99453.70
2022-11-30T00:06:23.239Z,99445.60
2022-11-30T00:11:27.426Z,99444.71
2022-11-30T00:16:31.741Z,99447.02
2022-11-30T00:21:33.732Z,99445.23
2022-11-30T00:26:36.001Z,99445.02
2022-11-30T00:31:39.224Z,99446.39
2022-11-30T00:36:41.112Z,99448.62
2022-11-30T00:41:43.046Z,99449.77
2022-11-30T00:46:44.874Z,99449.24
2022-11-30T00:51:46.792Z,99454.25
2022-11-30T00:56:48.732Z,99466.16
2022-11-30T01:01:50.685Z,99470.95
2022-11-30T01:06:52.742Z,99468.25
2022-11-30T01:11:54.693Z,99468.84
2022-11-30T01:16:56.581Z,99468.20
2022-11-30T01:21:58.491Z,99467.17
2022-11-30T01:27:00.332Z,99467.09
2022-11-30T01:32:02.197Z,99463.32
2022-11-30T01:37:04.027Z,99462.20
2022-11-30T01:42:13.135Z,99466.25
2022-11-30T01:47:16.016Z,99469.88
2022-11-30T01:52:24.443Z,99465.16
2022-11-30T01:57:31.268Z,99469.01
2022-11-30T02:03:02.165Z,99465.66
2022-11-30T02:08:10.179Z,99470.41
2022-11-30T02:13:18.213Z,99470.61
2022-11-30T02:18:29.188Z,99472.92
2022-11-30T02:23:46.368Z,99472.36
2022-11-30T02:29:12.978Z,99465.95
2022-11-30T02:34:17.562Z,99464.94
2022-11-30T02:39:22.244Z,99462.61
2022-11-30T02:44:24.662Z,99460.56
2022-11-30T02:49:41.984Z,99470.66
2022-11-30T02:54:44.054Z,99471.22
2022-11-30T02:59:46.258Z,99476.55
2022-11-30T03:04:48.271Z,99476.84
2022-11-30T03:09:50.483Z,99476.39
2022-11-30T03:14:52.561Z,99478.09
2022-11-30T03:19:54.447Z,99493.83
2022-11-30T03:24:56.265Z,99504.02
2022-11-30T03:29:58.108Z,99505.83
2022-11-30T03:34:59.947Z,99505.48
2022-11-30T03:40:01.916Z,99506.41
2022-11-30T03:45:04.793Z,99503.75
2022-11-30T03:50:07.738Z,99503.58
2022-11-30T03:55:09.962Z,99503.25
2022-11-30T04:00:13.184Z,99508.11
2022-11-30T04:05:15.112Z,99518.19
2022-11-30T04:10:16.923Z,99519.14
2022-11-30T04:15:18.837Z,99518.98
2022-11-30T04:20:20.607Z,99518.92
2022-11-30T04:25:22.457Z,99515.42
2022-11-30T04:30:24.603Z,99519.69
2022-11-30T04:35:26.417Z,99520.95
2022-11-30T04:40:28.258Z,99523.41
2022-11-30T04:45:35.077Z,99524.64
2022-11-30T04:50:37.439Z,99522.70
2022-11-30T04:55:39.604Z,99519.41
2022-11-30T05:00:41.554Z,99525.48
2022-11-30T05:05:43.417Z,99529.38
2022-11-30T05:10:50.114Z,99535.48
2022-11-30T05:15:54.789Z,99533.19
2022-11-30T05:20:56.696Z,99542.90
2022-11-30T05:26:02.433Z,99544.09
2022-11-30T05:31:05.301Z,99550.13
2022-11-30T05:36:10.980Z,99554.00
2022-11-30T05:41:13.695Z,99549.34
2022-11-30T05:46:15.567Z,99552.59
2022-11-30T05:51:19.196Z,99549.77
2022-11-30T05:56:22.301Z,99548.00
2022-11-30T06:01:29.385Z,99552.59
2022-11-30T06:06:31.295Z,99554.31
2022-11-30T06:11:33.253Z,99553.11
2022-11-30T06:16:35.205Z,99554.10
2022-11-30T06:21:37.084Z,99566.89
2022-11-30T06:26:39.469Z,99567.31
2022-11-30T06:31:41.384Z,99567.11
2022-11-30T06:36:43.289Z,99569.55
2022-11-30T06:41:47.098Z,99569.84
2022-11-30T06:46:51.960Z,99574.42
2022-11-30T06:51:53.760Z,99577.07
2022-11-30T06:56:56.765Z,99581.13
2022-11-30T07:02:01.674Z,99589.48
2022-11-30T07:07:08.302Z,99587.03
2022-11-30T07:12:10.199Z,99584.50
2022-11-30T07:17:12.028Z,99585.70
2022-11-30T07:22:14.516Z,99585.66
2022-11-30T07:27:16.340Z,99586.98
2022-11-30T07:32:18.730Z,99581.45
2022-11-30T07:37:20.542Z,99575.71
2022-11-30T07:42:23.030Z,99582.25
2022-11-30T07:47:24.895Z,99588.52
2022-11-30T07:52:26.689Z,99587.48
2022-11-30T07:57:28.510Z,99579.27
2022-11-30T08:02:30.400Z,99580.31
2022-11-30T08:07:32.235Z,99577.59
2022-11-30T08:12:34.312Z,99578.41
2022-11-30T08:17:36.289Z,99575.49
2022-11-30T08:22:38.184Z,99587.71
2022-11-30T08:27:40.083Z,99594.96
2022-11-30T08:32:41.980Z,99598.70
2022-11-30T08:37:43.778Z,99600.42
2022-11-30T08:42:45.794Z,99602.52
2022-11-30T08:47:47.629Z,99608.66
2022-11-30T08:52:49.451Z,99612.46
2022-11-30T08:57:51.585Z,99613.80
2022-11-30T09:02:53.519Z,99615.41
2022-11-30T09:07:55.434Z,99615.45
2022-11-30T09:12:57.350Z,99617.48
2022-11-30T09:17:59.155Z,99620.17
2022-11-30T09:23:00.968Z,99617.92
2022-11-30T09:28:03.723Z,99622.35
2022-11-30T09:33:07.691Z,99618.52
2022-11-30T09:38:09.540Z,99617.77
2022-11-30T09:43:46.024Z,99617.89
2022-11-30T09:48:59.651Z,99621.86
2022-11-30T09:54:09.075Z,99612.88
2022-11-30T09:59:29.908Z,99617.88
2022-11-30T10:04:31.752Z,99618.49
2022-11-30T10:10:32.327Z,99625.91
2022-11-30T10:15:54.393Z,99618.42
2022-11-30T10:21:24.748Z,99613.20
2022-11-30T10:26:34.575Z,99614.14
2022-11-30T10:31:38.794Z,99612.04
2022-11-30T10:36:44.595Z,99610.93
2022-11-30T10:41:54.561Z,99601.78
2022-11-30T10:47:02.976Z,99598.02
2022-11-30T10:52:08.871Z,99597.73
2022-11-30T10:57:11.007Z,99604.92
2022-11-30T11:02:36.995Z,99603.96
2022-11-30T11:08:05.898Z,99603.65
2022-11-30T11:13:17.387Z,99609.98
2022-11-30T11:18:26.160Z,99605.68
2022-11-30T11:23:39.950Z,99607.10
2022-11-30T11:28:45.648Z,99604.47
2022-11-30T11:33:53.822Z,99606.45
2022-11-30T11:38:56.576Z,99602.35
2022-11-30T11:44:10.293Z,99604.13
2022-11-30T11:49:22.767Z,99603.52
2022-11-30T11:54:35.705Z,99596.28
2022-11-30T11:59:52.176Z,99591.68
2022-11-30T12:05:07.473Z,99594.64
2022-11-30T12:10:50.715Z,99597.10
2022-11-30T12:16:11.943Z,99602.64
2022-11-30T12:21:16.598Z,99609.27
2022-11-30T12:26:43.647Z,99612.11
2022-11-30T12:32:11.474Z,99611.54
2022-11-30T12:37:40.683Z,99609.42
2022-11-30T12:43:03.885Z,99603.48
2022-11-30T12:48:50.056Z,99598.88
2022-11-30T12:54:13.639Z,99597.81
2022-11-30T12:59:27.961Z,99601.48
2022-11-30T13:04:38.184Z,99601.64
2022-11-30T13:09:47.182Z,99594.70
2022-11-30T13:14:59.655Z,99597.15
2022-11-30T13:20:16.400Z,99600.48
2022-11-30T13:25:59.729Z,99595.20
2022-11-30T13:30:58.273Z,99592.33
2022-11-30T13:36:03.895Z,99592.83
2022-11-30T13:41:08.757Z,99598.55
2022-11-30T13:46:15.696Z,99594.95
2022-11-30T13:51:39.154Z,99600.49
2022-11-30T13:56:45.760Z,99602.63
2022-11-30T14:02:36.559Z,99601.87
2022-11-30T14:07:38.880Z,99603.12
2022-11-30T14:12:56.627Z,99607.38
2022-11-30T14:17:59.163Z,99607.67
2022-11-30T14:23:07.600Z,99608.23
2022-11-30T14:28:16.605Z,99611.11
2022-11-30T14:33:48.271Z,99608.77
2022-11-30T14:38:50.320Z,99610.83
2022-11-30T14:44:10.644Z,99608.30
2022-11-30T14:49:18.067Z,99605.18
2022-11-30T14:54:47.001Z,99601.96
2022-11-30T14:59:53.259Z,99605.27
2022-11-30T15:04:56.996Z,99609.65
2022-11-30T15:10:06.907Z,99614.95
2022-11-30T15:15:24.504Z,99617.77
2022-11-30T15:21:06.762Z,99618.88
2022-11-30T15:26:21.411Z,99619.91
2022-11-30T15:31:24.557Z,99621.07
2022-11-30T15:36:33.290Z,99625.86
2022-11-30T15:41:36.270Z,99632.89
2022-11-30T15:46:46.397Z,99637.38
2022-11-30T15:52:18.858Z,99644.19
2022-11-30T15:57:22.814Z,99658.61
2022-11-30T16:02:28.377Z,99662.77
2022-11-30T16:07:34.443Z,99661.55
2022-11-30T16:12:36.232Z,99661.96
2022-11-30T16:17:38.049Z,99666.20
2022-11-30T16:22:44.998Z,99668.93
2022-11-30T16:27:48.167Z,99674.55
2022-11-30T16:32:50.758Z,99678.45
2022-11-30T16:37:52.563Z,99680.73
2022-11-30T16:42:54.746Z,99680.88
2022-11-30T16:47:56.550Z,99678.44
2022-11-30T16:52:58.815Z,99679.13
2022-11-30T16:58:01.912Z,99679.33
2022-11-30T17:03:09.627Z,99683.46
2022-11-30T17:08:11.862Z,99685.20
2022-11-30T17:13:14.979Z,99687.23
2022-11-30T17:18:16.794Z,99687.23
2022-11-30T17:23:18.670Z,99686.08
2022-11-30T17:28:20.565Z,99686.41
2022-11-30T17:33:22.440Z,99690.58
2022-11-30T17:38:27.815Z,99693.55
2022-11-30T17:43:29.615Z,99688.86
2022-11-30T17:48:32.234Z,99688.11
2022-11-30T17:53:34.289Z,99687.14
2022-11-30T17:58:43.053Z,99690.13
2022-11-30T18:03:46.362Z,99695.23
2022-11-30T18:08:48.514Z,99698.65
2022-11-30T18:13:53.428Z,99697.16
2022-11-30T18:18:58.554Z,99701.64
2022-11-30T18:24:00.306Z,99699.54
2022-11-30T18:29:02.780Z,99701.66
2022-11-30T18:34:06.749Z,99701.48
2022-11-30T18:39:09.016Z,99700.45
2022-11-30T18:44:10.991Z,99701.86
2022-11-30T18:49:12.873Z,99704.46
2022-11-30T18:54:14.911Z,99703.04
2022-11-30T18:59:16.875Z,99704.02
2022-11-30T19:04:18.968Z,99708.59
2022-11-30T19:09:22.512Z,99711.30
2022-11-30T19:14:24.298Z,99710.21
2022-11-30T19:19:26.123Z,99711.75
2022-11-30T19:24:28.928Z,99709.66
2022-11-30T19:29:30.718Z,99709.70
2022-11-30T19:34:32.776Z,99714.81
2022-11-30T19:39:34.580Z,99720.33
2022-11-30T19:44:36.538Z,99721.30
2022-11-30T19:49:38.342Z,99720.64
2022-11-30T19:54:40.233Z,99717.59
2022-11-30T19:59:42.011Z,99719.19
2022-11-30T20:04:43.779Z,99723.61
2022-11-30T20:09:45.577Z,99720.85
2022-11-30T20:14:50.235Z,99719.55
2022-11-30T20:19:52.396Z,99721.35
2022-11-30T20:24:54.198Z,99721.13
2022-11-30T20:29:56.436Z,99721.13
2022-11-30T20:34:58.156Z,99720.48
2022-11-30T20:40:00.036Z,99720.70
2022-11-30T20:45:01.917Z,99719.85
2022-11-30T20:50:06.751Z,99722.00
2022-11-30T20:55:09.082Z,99721.88
2022-11-30T21:00:13.345Z,99718.77
2022-11-30T21:05:15.828Z,99722.50
2022-11-30T21:10:17.682Z,99717.34
2022-11-30T21:15:19.485Z,99715.15
2022-11-30T21:20:21.335Z,99718.35
2022-11-30T21:25:23.192Z,99711.75
2022-11-30T21:30:24.979Z,99706.07
2022-11-30T21:35:26.883Z,99706.71
2022-11-30T21:40:28.717Z,99705.73
2022-11-30T21:45:30.567Z,99706.23
2022-11-30T21:50:32.296Z,99707.20
2022-11-30T21:55:36.641Z,99702.36
2022-11-30T22:00:38.472Z,99702.45
2022-11-30T22:05:40.325Z,99698.17
2022-11-30T22:10:42.132Z,99699.94
2022-11-30T22:15:43.975Z,99700.95
2022-11-30T22:20:45.836Z,99703.59
2022-11-30T22:25:47.666Z,99711.21
2022-11-30T22:30:49.512Z,99710.85
2022-11-30T22:35:51.312Z,99715.33
2022-11-30T22:40:53.114Z,99709.67
2022-11-30T22:45:54.898Z,99715.81
2022-11-30T22:50:56.716Z,99717.00
2022-11-30T22:56:03.139Z,99718.09
2022-11-30T23:01:12.538Z,99713.40
2022-11-30T23:06:15.872Z,99714.98
2022-11-30T23:11:20.523Z,99710.25
2022-11-30T23:16:22.829Z,99709.76
2022-11-30T23:21:29.886Z,99710.72
2022-11-30T23:26:34.928Z,99708.64
2022-11-30T23:31:39.064Z,99700.79
2022-11-30T23:36:40.971Z,99701.70
2022-11-30T23:41:43.660Z,99704.57
2022-11-30T23:46:45.971Z,99701.71
2022-11-30T23:51:47.799Z,99693.27
2022-11-30T23:56:49.604Z,99695.08
